createdAt,value
2022-10-22T00:01:11.801Z,9.37
2022-10-22T00:03:38.733Z,9.42
2022-10-22T00:06:05.441Z,9.43
2022-10-22T00:08:32.281Z,9.51
2022-10-22T00:10:58.983Z,9.52
2022-10-22T00:13:25.339Z,9.58
2022-10-22T00:15:52.287Z,9.62
2022-10-22T00:18:18.677Z,9.50
2022-10-22T00:20:45.117Z,9.28
2022-10-22T00:23:11.591Z,9.43
2022-10-22T00:25:38.109Z,9.52
2022-10-22T00:28:04.652Z,9.56
2022-10-22T00:30:31.200Z,9.52
2022-10-22T00:32:57.686Z,9.51
2022-10-22T00:35:24.324Z,9.53
2022-10-22T00:37:50.915Z,9.49
2022-10-22T00:40:17.398Z,9.45
2022-10-22T00:42:44.088Z,9.45
2022-10-22T00:45:10.629Z,9.47
2022-10-22T00:47:37.346Z,9.43
2022-10-22T00:52:30.707Z,9.48
2022-10-22T00:54:57.228Z,9.45
2022-10-22T00:57:23.668Z,9.39
2022-10-22T00:59:50.318Z,9.34
2022-10-22T01:04:52.108Z,9.34
2022-10-22T01:07:18.444Z,9.33
2022-10-22T01:09:44.848Z,9.31
2022-10-22T01:12:11.490Z,9.24
2022-10-22T01:14:37.832Z,9.14
2022-10-22T01:17:04.179Z,9.15
2022-10-22T01:19:30.807Z,9.14
2022-10-22T01:21:57.221Z,9.17
2022-10-22T01:24:23.586Z,9.14
2022-10-22T01:26:50.242Z,9.18
2022-10-22T01:29:16.606Z,9.16
2022-10-22T01:31:42.989Z,9.14
2022-10-22T01:34:09.397Z,9.12
2022-10-22T01:36:35.778Z,9.16
2022-10-22T01:39:02.134Z,9.09
2022-10-22T01:41:28.521Z,9.09
2022-10-22T01:43:54.909Z,9.00
2022-10-22T01:46:21.306Z,8.99
2022-10-22T01:48:47.731Z,9.00
2022-10-22T01:51:14.132Z,9.04
2022-10-22T01:53:40.488Z,9.00
2022-10-22T01:56:07.411Z,8.96
2022-10-22T01:58:33.841Z,8.92
2022-10-22T02:01:00.347Z,8.56
2022-10-22T02:03:27.117Z,8.60
2022-10-22T02:05:53.457Z,8.66
2022-10-22T02:08:19.791Z,8.75
2022-10-22T02:10:46.640Z,8.82
2022-10-22T02:13:12.972Z,8.73
2022-10-22T02:15:42.047Z,8.88
2022-10-22T02:18:08.683Z,8.78
2022-10-22T02:20:35.055Z,8.68
2022-10-22T02:23:01.431Z,8.69
2022-10-22T02:25:27.766Z,8.72
2022-10-22T02:27:54.167Z,8.78
2022-10-22T02:30:20.467Z,8.47
2022-10-22T02:32:46.854Z,8.56
2022-10-22T02:35:13.207Z,8.64
2022-10-22T02:37:39.554Z,8.68
2022-10-22T02:40:06.474Z,8.64
2022-10-22T02:42:33.175Z,8.68
2022-10-22T02:44:59.504Z,8.64
2022-10-22T02:47:26.164Z,8.50
2022-10-22T02:49:52.496Z,8.55
2022-10-22T02:52:18.847Z,8.62
2022-10-22T02:54:45.220Z,8.50
2022-10-22T02:57:11.613Z,8.47
2022-10-22T02:59:37.994Z,8.51
2022-10-22T03:02:04.416Z,8.52
2022-10-22T03:04:30.772Z,8.55
2022-10-22T03:06:57.190Z,8.57
2022-10-22T03:09:24.858Z,8.56
2022-10-22T03:11:51.452Z,8.39
2022-10-22T03:14:17.801Z,8.33
2022-10-22T03:16:44.477Z,8.51
2022-10-22T03:19:10.852Z,8.34
2022-10-22T03:21:37.244Z,8.18
2022-10-22T03:24:04.248Z,8.19
2022-10-22T03:26:30.618Z,8.23
2022-10-22T03:28:57.026Z,8.30
2022-10-22T03:31:23.429Z,8.27
2022-10-22T03:33:49.825Z,8.23
2022-10-22T03:36:16.178Z,8.25
2022-10-22T03:38:42.721Z,8.31
2022-10-22T03:41:09.065Z,8.29
2022-10-22T03:43:35.413Z,8.37
2022-10-22T03:46:01.836Z,8.35
2022-10-22T03:48:28.173Z,7.52
2022-10-22T03:50:54.543Z,7.60
2022-10-22T03:53:20.972Z,7.87
2022-10-22T03:55:47.287Z,8.06
2022-10-22T03:58:13.664Z,8.09
2022-10-22T04:00:40.131Z,7.84
2022-10-22T04:03:06.513Z,8.00
2022-10-22T04:05:32.926Z,8.07
2022-10-22T04:07:59.427Z,8.06
2022-10-22T04:10:25.794Z,8.14
2022-10-22T04:12:52.299Z,8.18
2022-10-22T04:15:19.241Z,8.09
2022-10-22T04:17:45.626Z,7.85
2022-10-22T04:20:12.003Z,7.75
2022-10-22T04:22:38.882Z,7.78
2022-10-22T04:25:05.281Z,7.94
2022-10-22T04:27:31.651Z,8.04
2022-10-22T04:29:58.363Z,8.01
2022-10-22T04:32:24.764Z,7.79
2022-10-22T04:34:51.130Z,7.75
2022-10-22T04:37:17.796Z,7.99
2022-10-22T04:39:44.259Z,8.01
2022-10-22T04:42:10.757Z,7.87
2022-10-22T04:44:37.330Z,7.70
2022-10-22T04:47:03.702Z,7.90
2022-10-22T04:49:30.091Z,8.00
2022-10-22T04:51:56.644Z,7.90
2022-10-22T04:54:23.046Z,7.92
2022-10-22T04:56:49.460Z,7.92
2022-10-22T04:59:15.952Z,7.90
2022-10-22T05:01:43.150Z,7.93
2022-10-22T05:04:09.781Z,8.00
2022-10-22T05:06:37.459Z,8.09
2022-10-22T05:09:03.916Z,7.92
2022-10-22T05:11:30.290Z,7.80
2022-10-22T05:13:57.133Z,8.01
2022-10-22T05:16:23.472Z,8.08
2022-10-22T05:18:49.871Z,8.10
2022-10-22T05:21:16.748Z,8.04
2022-10-22T05:23:43.077Z,8.05
2022-10-22T05:26:09.429Z,8.12
2022-10-22T05:28:36.340Z,8.18
2022-10-22T05:31:02.728Z,8.07
2022-10-22T05:33:29.075Z,8.27
2022-10-22T05:35:56.426Z,8.25
2022-10-22T05:38:22.849Z,8.28
2022-10-22T05:40:49.214Z,8.41
2022-10-22T05:43:15.658Z,8.16
2022-10-22T05:45:42.053Z,8.05
2022-10-22T05:48:08.414Z,7.87
2022-10-22T05:50:35.123Z,8.03
2022-10-22T05:53:01.732Z,8.17
2022-10-22T05:55:28.077Z,8.24
2022-10-22T05:57:54.761Z,8.32
2022-10-22T06:00:21.185Z,8.40
2022-10-22T06:02:47.643Z,8.46
2022-10-22T06:05:14.105Z,8.49
2022-10-22T06:07:40.862Z,8.05
2022-10-22T06:10:07.210Z,8.33
2022-10-22T06:12:33.690Z,8.28
2022-10-22T06:15:00.051Z,8.25
2022-10-22T06:17:26.501Z,8.19
2022-10-22T06:19:53.271Z,8.16
2022-10-22T06:22:20.033Z,7.99
2022-10-22T06:24:46.463Z,8.14
2022-10-22T06:27:13.002Z,8.37
2022-10-22T06:29:39.368Z,8.32
2022-10-22T06:32:05.768Z,8.16
2022-10-22T06:34:32.427Z,8.41
2022-10-22T06:36:58.869Z,8.71
2022-10-22T06:39:25.250Z,8.73
2022-10-22T06:41:51.899Z,8.69
2022-10-22T06:44:18.534Z,8.84
2022-10-22T06:46:44.976Z,8.98
2022-10-22T06:49:12.406Z,8.89
2022-10-22T06:51:38.785Z,8.68
2022-10-22T06:54:05.138Z,8.49
2022-10-22T06:56:31.535Z,8.95
2022-10-22T06:58:57.931Z,9.20
2022-10-22T07:01:24.636Z,9.26
2022-10-22T07:03:51.090Z,8.81
2022-10-22T07:06:17.514Z,9.16
2022-10-22T07:08:44.111Z,9.06
2022-10-22T07:11:10.648Z,9.03
2022-10-22T07:13:37.019Z,9.10
2022-10-22T07:16:03.966Z,9.39
2022-10-22T07:18:30.586Z,9.38
2022-10-22T07:20:59.707Z,9.45
2022-10-22T07:23:26.376Z,9.14
2022-10-22T07:25:53.094Z,9.17
2022-10-22T07:28:19.565Z,9.61
2022-10-22T07:30:45.926Z,9.69
2022-10-22T07:33:12.539Z,9.64
2022-10-22T07:35:39.004Z,8.99
2022-10-22T07:38:06.448Z,9.12
2022-10-22T07:40:32.869Z,9.58
2022-10-22T07:42:59.264Z,9.57
2022-10-22T07:45:25.794Z,9.44
2022-10-22T07:47:52.268Z,9.04
2022-10-22T07:50:19.028Z,9.05
2022-10-22T07:52:45.444Z,8.90
2022-10-22T07:55:12.274Z,9.00
2022-10-22T07:57:38.833Z,9.18
2022-10-22T08:00:05.264Z,9.17
2022-10-22T08:02:31.808Z,9.33
2022-10-22T08:04:58.179Z,9.24
2022-10-22T08:07:24.517Z,8.95
2022-10-22T08:09:51.236Z,8.98
2022-10-22T08:12:17.648Z,8.69
2022-10-22T08:14:44.242Z,8.71
2022-10-22T08:17:10.818Z,9.08
2022-10-22T08:19:37.207Z,9.30
2022-10-22T08:22:05.038Z,9.31
2022-10-22T08:24:31.756Z,9.29
2022-10-22T08:26:58.135Z,8.64
2022-10-22T08:29:25.744Z,8.46
2022-10-22T08:31:52.604Z,8.54
2022-10-22T08:34:18.953Z,8.72
2022-10-22T08:36:45.364Z,8.93
2022-10-22T08:39:12.123Z,9.08
2022-10-22T08:41:38.637Z,8.92
2022-10-22T08:44:05.038Z,8.93
2022-10-22T08:46:31.458Z,8.61
2022-10-22T08:48:57.985Z,8.91
2022-10-22T08:51:24.510Z,8.73
2022-10-22T08:53:51.278Z,9.09
2022-10-22T08:56:17.736Z,9.31
2022-10-22T08:58:44.102Z,9.57
2022-10-22T09:01:10.720Z,9.68
2022-10-22T09:03:37.090Z,9.78
2022-10-22T09:06:03.498Z,9.85
2022-10-22T09:08:30.012Z,9.98
2022-10-22T09:10:56.549Z,10.19
2022-10-22T09:13:22.998Z,10.24
2022-10-22T09:15:49.544Z,9.87
2022-10-22T09:18:18.244Z,9.79
2022-10-22T09:20:44.591Z,9.69
2022-10-22T09:23:11.035Z,9.81
2022-10-22T09:25:37.570Z,10.07
2022-10-22T09:28:03.945Z,9.70
2022-10-22T09:30:30.410Z,10.03
2022-10-22T09:32:56.796Z,10.00
2022-10-22T09:35:23.152Z,10.17
2022-10-22T09:37:49.567Z,10.18
2022-10-22T09:40:15.917Z,10.30
2022-10-22T09:42:42.620Z,10.00
2022-10-22T09:45:09.237Z,9.85
2022-10-22T09:48:00.694Z,10.13
2022-10-22T09:50:21.955Z,10.42
2022-10-22T09:52:48.357Z,10.47
2022-10-22T09:55:14.716Z,10.60
2022-10-22T09:57:44.480Z,10.68
2022-10-22T10:00:11.020Z,10.55
2022-10-22T10:02:38.594Z,10.50
2022-10-22T10:05:05.886Z,10.54
2022-10-22T10:07:32.255Z,10.61
2022-10-22T10:09:59.159Z,10.09
2022-10-22T10:12:25.572Z,10.00
2022-10-22T10:14:51.944Z,10.23
2022-10-22T10:17:19.852Z,10.33
2022-10-22T10:19:46.451Z,10.36
2022-10-22T10:22:12.784Z,10.40
2022-10-22T10:24:39.290Z,10.43
2022-10-22T10:27:05.986Z,10.43
2022-10-22T10:29:32.377Z,10.41
2022-10-22T10:31:58.750Z,10.45
2022-10-22T10:34:27.794Z,10.36
2022-10-22T10:36:54.201Z,10.22
2022-10-22T10:39:23.610Z,10.30
2022-10-22T10:41:50.342Z,10.40
2022-10-22T10:44:16.789Z,10.46
2022-10-22T10:46:43.140Z,10.54
2022-10-22T10:49:10.035Z,10.52
2022-10-22T10:51:36.516Z,10.65
2022-10-22T10:54:02.921Z,10.68
2022-10-22T10:56:29.257Z,10.76
2022-10-22T10:58:55.608Z,10.78
2022-10-22T11:01:22.120Z,10.85
2022-10-22T11:03:48.829Z,10.89
2022-10-22T11:06:15.214Z,10.86
2022-10-22T11:08:41.721Z,10.85
2022-10-22T11:11:08.481Z,10.92
2022-10-22T11:13:36.182Z,11.15
2022-10-22T11:16:02.558Z,11.18
2022-10-22T11:18:28.990Z,10.98
2022-10-22T11:20:55.547Z,11.15
2022-10-22T11:23:22.449Z,11.25
2022-10-22T11:25:49.043Z,11.24
2022-10-22T11:30:46.689Z,11.37
2022-10-22T11:33:13.374Z,11.56
2022-10-22T11:35:39.817Z,11.76
2022-10-22T11:38:06.348Z,11.95
2022-10-22T11:40:33.033Z,11.85
2022-10-22T11:42:59.599Z,11.98
2022-10-22T11:45:25.956Z,12.01
2022-10-22T11:47:52.561Z,12.07
2022-10-22T11:50:19.047Z,12.07
2022-10-22T11:52:45.458Z,11.19
2022-10-22T11:55:12.428Z,11.37
2022-10-22T11:57:39.338Z,11.57
2022-10-22T12:00:06.013Z,11.53
2022-10-22T12:02:32.990Z,11.64
2022-10-22T12:04:59.657Z,11.75
2022-10-22T12:07:26.025Z,11.74
2022-10-22T12:12:24.347Z,11.68
2022-10-22T12:14:51.716Z,11.82
2022-10-22T12:17:18.118Z,11.85
2022-10-22T12:19:45.425Z,11.84
2022-10-22T12:22:11.788Z,11.46
2022-10-22T12:24:38.544Z,11.55
2022-10-22T12:27:04.902Z,11.91
2022-10-22T12:29:31.262Z,11.98
2022-10-22T12:31:57.904Z,11.87
2022-10-22T12:34:24.323Z,11.91
2022-10-22T12:36:50.659Z,12.09
2022-10-22T12:39:17.377Z,12.07
2022-10-22T12:41:43.746Z,11.72
2022-10-22T12:44:10.083Z,11.70
2022-10-22T12:46:36.472Z,11.50
2022-10-22T12:49:03.033Z,11.40
2022-10-22T12:51:29.500Z,11.86
2022-10-22T12:53:55.983Z,11.29
2022-10-22T12:56:22.519Z,11.84
2022-10-22T12:58:48.924Z,11.85
2022-10-22T13:01:15.461Z,11.58
2022-10-22T13:03:41.851Z,11.67
2022-10-22T13:06:08.236Z,11.89
2022-10-22T13:08:34.739Z,11.37
2022-10-22T13:11:01.131Z,11.60
2022-10-22T13:13:27.541Z,11.29
2022-10-22T13:15:54.001Z,11.40
2022-10-22T13:18:20.401Z,11.62
2022-10-22T13:20:47.009Z,11.42
2022-10-22T13:23:13.611Z,11.32
2022-10-22T13:25:39.948Z,11.60
2022-10-22T13:28:06.367Z,11.67
2022-10-22T13:30:33.177Z,11.74
2022-10-22T13:32:59.568Z,11.86
2022-10-22T13:35:25.929Z,11.79
2022-10-22T13:37:52.390Z,11.85
2022-10-22T13:40:18.794Z,11.96
2022-10-22T13:42:45.194Z,12.22
2022-10-22T13:45:12.125Z,12.27
2022-10-22T13:47:38.494Z,11.78
2022-10-22T13:50:04.979Z,11.89
2022-10-22T13:52:31.446Z,11.91
2022-10-22T13:54:57.860Z,11.64
2022-10-22T13:57:24.437Z,11.94
2022-10-22T13:59:51.037Z,12.09
2022-10-22T14:02:19.732Z,12.20
2022-10-22T14:04:47.395Z,12.12
2022-10-22T14:07:15.090Z,11.81
2022-10-22T14:09:41.424Z,11.97
2022-10-22T14:12:07.819Z,11.93
2022-10-22T14:14:34.590Z,11.95
2022-10-22T14:17:00.991Z,11.95
2022-10-22T14:19:27.477Z,11.90
2022-10-22T14:21:54.039Z,11.90
2022-10-22T14:24:20.508Z,12.06
2022-10-22T14:26:47.100Z,12.07
2022-10-22T14:29:13.771Z,12.11
2022-10-22T14:34:11.594Z,12.28
2022-10-22T14:36:38.004Z,12.39
2022-10-22T14:39:04.355Z,12.48
2022-10-22T14:41:30.721Z,12.57
2022-10-22T14:43:57.777Z,12.56
2022-10-22T14:46:24.309Z,12.57
2022-10-22T14:48:50.633Z,12.25
2022-10-22T14:51:17.202Z,12.29
2022-10-22T14:53:43.671Z,12.15
2022-10-22T14:56:10.230Z,12.26
2022-10-22T14:58:36.651Z,12.12
2022-10-22T15:01:03.102Z,12.07
2022-10-22T15:03:29.465Z,12.10
2022-10-22T15:05:56.334Z,11.88
2022-10-22T15:08:22.795Z,11.85
2022-10-22T15:10:49.160Z,11.97
2022-10-22T15:13:15.823Z,11.95
2022-10-22T15:15:42.177Z,11.85
2022-10-22T15:18:08.777Z,11.91
2022-10-22T15:20:35.970Z,12.10
2022-10-22T15:23:02.368Z,11.95
2022-10-22T15:25:29.043Z,11.82
2022-10-22T15:27:59.651Z,11.83
2022-10-22T15:30:34.193Z,12.06
2022-10-22T15:33:01.069Z,11.91
2022-10-22T15:35:27.466Z,11.57
2022-10-22T15:37:53.907Z,11.63
2022-10-22T15:40:20.330Z,11.55
2022-10-22T15:42:49.507Z,11.79
2022-10-22T15:45:16.105Z,11.56
2022-10-22T15:47:45.057Z,11.56
2022-10-22T15:50:13.703Z,11.52
2022-10-22T15:52:40.182Z,10.85
2022-10-22T15:55:07.128Z,11.49
2022-10-22T15:57:33.680Z,11.44
2022-10-22T16:00:01.062Z,11.53
2022-10-22T16:02:27.713Z,11.86
2022-10-22T16:04:54.176Z,11.92
2022-10-22T16:07:23.912Z,11.63
2022-10-22T16:09:51.600Z,11.74
2022-10-22T16:12:18.019Z,11.61
2022-10-22T16:14:44.596Z,11.47
2022-10-22T16:17:11.178Z,11.66
2022-10-22T16:19:37.616Z,11.56
2022-10-22T16:22:04.231Z,11.52
2022-10-22T16:24:31.825Z,11.50
2022-10-22T16:26:58.246Z,11.41
2022-10-22T16:29:24.825Z,11.79
2022-10-22T16:31:51.623Z,11.46
2022-10-22T16:34:18.033Z,11.52
2022-10-22T16:36:45.271Z,11.78
2022-10-22T16:39:11.846Z,11.26
2022-10-22T16:41:38.446Z,11.56
2022-10-22T16:44:04.855Z,11.60
2022-10-22T16:46:31.346Z,11.38
2022-10-22T16:48:58.267Z,11.58
2022-10-22T16:51:25.100Z,11.20
2022-10-22T16:53:51.676Z,11.23
2022-10-22T16:56:18.296Z,11.39
2022-10-22T16:58:44.770Z,11.55
2022-10-22T17:01:11.714Z,11.04
2022-10-22T17:03:38.623Z,11.35
2022-10-22T17:06:05.436Z,10.86
2022-10-22T17:08:32.367Z,11.07
2022-10-22T17:10:58.963Z,11.11
2022-10-22T17:13:26.653Z,11.43
2022-10-22T17:15:53.535Z,11.39
2022-10-22T17:18:19.966Z,11.41
2022-10-22T17:20:46.819Z,11.76
2022-10-22T17:23:13.755Z,11.21
2022-10-22T17:25:40.552Z,11.01
2022-10-22T17:28:07.447Z,10.94
2022-10-22T17:30:34.465Z,11.36
2022-10-22T17:33:01.167Z,11.41
2022-10-22T17:38:00.268Z,11.43
2022-10-22T17:40:27.144Z,11.39
2022-10-22T17:42:53.869Z,10.90
2022-10-22T17:45:21.244Z,11.39
2022-10-22T17:47:48.080Z,11.12
2022-10-22T17:50:14.677Z,10.78
2022-10-22T17:52:41.652Z,11.08
2022-10-22T17:55:09.396Z,11.43
2022-10-22T17:57:35.916Z,11.26
2022-10-22T18:00:02.713Z,10.79
2022-10-22T18:02:29.109Z,10.68
2022-10-22T18:04:55.818Z,11.16
2022-10-22T18:07:22.402Z,11.45
2022-10-22T18:09:49.224Z,11.11
2022-10-22T18:12:17.007Z,10.78
2022-10-22T18:14:44.662Z,10.31
2022-10-22T18:17:12.265Z,10.70
2022-10-22T18:19:39.004Z,10.82
2022-10-22T18:22:05.883Z,11.14
2022-10-22T18:24:33.381Z,10.92
2022-10-22T18:27:01.032Z,11.14
2022-10-22T18:29:28.092Z,10.91
2022-10-22T18:31:54.834Z,11.17
2022-10-22T18:34:23.792Z,11.48
2022-10-22T18:36:57.268Z,11.08
2022-10-22T18:39:24.057Z,11.01
2022-10-22T18:41:50.957Z,11.01
2022-10-22T18:44:20.770Z,11.30
2022-10-22T18:46:47.867Z,11.41
2022-10-22T18:49:14.807Z,11.52
2022-10-22T18:51:45.145Z,11.25
2022-10-22T18:54:22.799Z,11.23
2022-10-22T18:56:50.376Z,11.53
2022-10-22T18:59:17.080Z,10.64
2022-10-22T19:01:44.158Z,11.34
2022-10-22T19:04:11.914Z,11.47
2022-10-22T19:06:40.680Z,11.35
2022-10-22T19:09:09.911Z,11.31
2022-10-22T19:11:37.119Z,10.94
2022-10-22T19:14:04.703Z,11.11
2022-10-22T19:16:31.482Z,11.19
2022-10-22T19:18:58.576Z,11.15
2022-10-22T19:21:25.471Z,11.36
2022-10-22T19:23:52.054Z,11.16
2022-10-22T19:26:19.263Z,11.23
2022-10-22T19:28:48.054Z,11.40
2022-10-22T19:31:14.697Z,11.47
2022-10-22T19:33:41.329Z,11.28
2022-10-22T19:36:09.123Z,11.45
2022-10-22T19:38:35.558Z,11.45
2022-10-22T19:41:02.646Z,11.27
2022-10-22T19:43:29.045Z,11.66
2022-10-22T19:45:55.819Z,11.39
2022-10-22T19:48:23.678Z,11.11
2022-10-22T19:50:50.656Z,11.07
2022-10-22T19:53:17.331Z,10.95
2022-10-22T19:55:44.139Z,11.04
2022-10-22T19:58:10.877Z,11.11
2022-10-22T20:00:37.603Z,11.47
2022-10-22T20:03:04.124Z,11.38
2022-10-22T20:05:30.651Z,11.49
2022-10-22T20:07:57.254Z,11.56
2022-10-22T20:10:23.756Z,11.53
2022-10-22T20:12:50.523Z,11.30
2022-10-22T20:15:16.955Z,11.17
2022-10-22T20:17:43.921Z,11.21
2022-10-22T20:20:10.411Z,10.66
2022-10-22T20:22:36.860Z,11.01
2022-10-22T20:25:03.181Z,11.29
2022-10-22T20:27:29.563Z,11.64
2022-10-22T20:29:57.540Z,11.61
2022-10-22T20:32:24.392Z,11.72
2022-10-22T20:34:51.097Z,11.74
2022-10-22T20:37:20.565Z,11.72
2022-10-22T20:39:47.425Z,11.64
2022-10-22T20:42:14.120Z,11.30
2022-10-22T20:44:40.587Z,11.31
2022-10-22T20:47:07.612Z,11.42
2022-10-22T20:49:34.274Z,11.65
2022-10-22T20:52:01.025Z,11.28
2022-10-22T20:54:28.713Z,11.34
2022-10-22T20:56:55.515Z,11.43
2022-10-22T20:59:22.400Z,11.51
2022-10-22T21:01:49.894Z,11.66
2022-10-22T21:04:16.364Z,11.50
2022-10-22T21:06:42.716Z,11.48
2022-10-22T21:09:10.609Z,11.75
2022-10-22T21:11:37.231Z,11.81
2022-10-22T21:14:03.625Z,11.36
2022-10-22T21:16:30.640Z,11.35
2022-10-22T21:18:57.248Z,11.27
2022-10-22T21:21:23.693Z,11.15
2022-10-22T21:23:50.306Z,11.14
2022-10-22T21:26:17.201Z,11.34
2022-10-22T21:28:43.648Z,11.59
2022-10-22T21:31:10.182Z,11.73
2022-10-22T21:33:36.630Z,11.74
2022-10-22T21:36:03.128Z,11.77
2022-10-22T21:38:29.763Z,11.85
2022-10-22T21:40:56.205Z,11.79
2022-10-22T21:43:22.587Z,11.64
2022-10-22T21:45:49.056Z,11.66
2022-10-22T21:48:15.402Z,11.78
2022-10-22T21:50:42.026Z,11.57
2022-10-22T21:53:08.616Z,11.30
2022-10-22T21:55:35.016Z,11.21
2022-10-22T21:58:01.387Z,11.41
2022-10-22T22:00:29.901Z,11.48
2022-10-22T22:02:56.547Z,11.71
2022-10-22T22:05:22.960Z,11.51
2022-10-22T22:07:49.709Z,11.55
2022-10-22T22:10:16.313Z,11.72
2022-10-22T22:12:43.300Z,11.81
2022-10-22T22:15:10.105Z,11.93
2022-10-22T22:17:36.855Z,11.91
2022-10-22T22:20:03.245Z,11.73
2022-10-22T22:22:29.898Z,11.85
2022-10-22T22:24:56.244Z,11.96
2022-10-22T22:27:23.623Z,11.88
2022-10-22T22:29:50.702Z,12.00
2022-10-22T22:32:17.189Z,11.78
2022-10-22T22:34:43.570Z,11.80
2022-10-22T22:37:11.121Z,11.79
2022-10-22T22:39:37.673Z,11.56
2022-10-22T22:42:04.048Z,11.85
2022-10-22T22:44:30.417Z,12.02
2022-10-22T22:46:56.870Z,11.87
2022-10-22T22:49:23.644Z,11.64
2022-10-22T22:51:50.179Z,11.41
2022-10-22T22:54:16.565Z,11.09
2022-10-22T22:56:42.923Z,11.44
2022-10-22T22:59:09.492Z,11.36
2022-10-22T23:01:36.359Z,11.21
2022-10-22T23:04:02.725Z,11.65
2022-10-22T23:06:29.396Z,11.46
2022-10-22T23:08:55.894Z,11.19
2022-10-22T23:11:22.299Z,10.99
2022-10-22T23:13:49.004Z,10.84
2022-10-22T23:16:15.533Z,11.26
2022-10-22T23:18:42.031Z,11.48
2022-10-22T23:21:08.466Z,11.63
2022-10-22T23:23:34.812Z,11.67
2022-10-22T23:26:01.338Z,11.72
2022-10-22T23:28:27.783Z,11.82
2022-10-22T23:30:54.161Z,11.74
2022-10-22T23:33:20.549Z,11.83
2022-10-22T23:35:47.322Z,11.76
2022-10-22T23:38:13.707Z,11.76
2022-10-22T23:40:40.074Z,11.72
2022-10-22T23:43:06.698Z,11.77
2022-10-22T23:45:33.283Z,11.82
2022-10-22T23:47:59.647Z,11.68
2022-10-22T23:50:26.060Z,11.60
2022-10-22T23:52:52.411Z,11.60
2022-10-22T23:55:18.832Z,11.58
2022-10-22T23:57:45.647Z,11.54
